Time;durP1;ratioP1;P1;durP2;ratioP2;P2;SDS_P1;SDS_P2;PMS_P1;PMS_P2;Temp;Humidity;BMP_temperature;BMP_pressure;BME280_temperature;BME280_humidity;BME280_pressure;Samples;Min_cycle;Max_cycle;Signal;HPM_P1;HPM_P2
2022/03/07 00:00:17;;;;;;;;;71.50;54.75;;;;;3.25;100.00;101930.25;5088118;27;45183;-88
2022/03/07 00:02:43;;;;;;;;;75.00;54.75;;;;;3.21;100.00;101933.81;5083930;28;45461;-88
2022/03/07 00:05:08;;;;;;;;;78.00;61.25;;;;;3.18;100.00;101928.59;5084720;27;45439;-88
2022/03/07 00:07:34;;;;;;;;;74.50;56.25;;;;;3.16;100.00;101914.66;5085828;28;44788;-88
2022/03/07 00:09:59;;;;;;;;;62.00;50.25;;;;;3.14;100.00;101920.78;5086682;27;44780;-88
2022/03/07 00:12:24;;;;;;;;;73.75;56.50;;;;;3.11;100.00;101927.00;5084232;27;46456;-87
2022/03/07 00:14:50;;;;;;;;;65.00;50.25;;;;;3.08;100.00;101924.41;5082057;27;45498;-87
2022/03/07 00:17:15;;;;;;;;;76.25;58.75;;;;;3.04;100.00;101918.31;5080209;27;45416;-87
2022/03/07 00:19:41;;;;;;;;;67.50;51.75;;;;;3.00;100.00;101913.19;5080828;27;44896;-86
2022/03/07 00:22:06;;;;;;;;;71.50;53.75;;;;;2.98;100.00;101920.19;5079599;27;46776;-88
2022/03/07 00:24:31;;;;;;;;;69.00;53.25;;;;;2.94;100.00;101936.88;5078930;27;44775;-86
2022/03/07 00:26:57;;;;;;;;;75.50;59.50;;;;;2.91;100.00;101935.19;5085126;27;44779;-87
2022/03/07 00:29:22;;;;;;;;;64.50;47.75;;;;;2.87;100.00;101932.63;5081505;27;44897;-88
2022/03/07 00:31:52;;;;;;;;;65.00;50.75;;;;;2.88;100.00;101934.38;5084397;27;45368;-87
2022/03/07 00:34:17;;;;;;;;;67.75;49.25;;;;;2.83;100.00;101927.44;5089780;28;44709;-85
2022/03/07 00:36:43;;;;;;;;;75.00;57.50;;;;;2.83;100.00;101931.81;5095938;28;45203;-86
2022/03/07 00:39:08;;;;;;;;;56.75;46.25;;;;;2.79;100.00;101936.22;5084722;27;45525;-87
2022/03/07 00:41:34;;;;;;;;;81.50;61.00;;;;;2.78;100.00;101938.88;5081372;27;44917;-87
2022/03/07 00:43:59;;;;;;;;;72.50;56.50;;;;;2.76;100.00;101930.19;5078753;28;45452;-87
2022/03/07 00:46:25;;;;;;;;;73.25;54.25;;;;;2.73;100.00;101935.47;5081251;27;44767;-87
2022/03/07 00:48:50;;;;;;;;;58.75;48.00;;;;;2.70;100.00;101906.66;5078955;27;44792;-87
2022/03/07 00:51:16;;;;;;;;;43.00;39.00;;;;;2.69;100.00;101929.41;5079470;27;46829;-87
2022/03/07 00:53:42;;;;;;;;;72.25;57.75;;;;;2.69;100.00;101928.53;5083334;27;44805;-86
2022/03/07 00:56:10;;;;;;;;;71.00;52.50;;;;;2.64;100.00;101928.59;5081775;27;44748;-87
2022/03/07 00:58:35;;;;;;;;;63.25;48.00;;;;;2.62;100.00;101924.28;5082018;27;44921;-86
2022/03/07 01:01:01;;;;;;;;;69.50;54.50;;;;;2.60;100.00;101932.16;5086293;27;45912;-85
2022/03/07 01:03:26;;;;;;;;;73.75;60.00;;;;;2.55;100.00;101926.97;5089610;27;44680;-86
2022/03/07 01:05:51;;;;;;;;;71.75;58.50;;;;;2.53;100.00;101925.28;5085279;27;44981;-85
2022/03/07 01:08:17;;;;;;;;;70.50;55.00;;;;;2.51;100.00;101921.78;5081780;27;45523;-87
2022/03/07 01:10:43;;;;;;;;;70.50;52.50;;;;;2.49;100.00;101918.34;5080610;28;45049;-86
2022/03/07 01:13:08;;;;;;;;;75.50;54.75;;;;;2.45;100.00;101917.50;5084209;27;44787;-87
2022/03/07 01:15:34;;;;;;;;;75.25;56.00;;;;;2.44;100.00;101928.03;5087576;27;44721;-85
2022/03/07 01:17:59;;;;;;;;;77.00;57.75;;;;;2.40;100.00;101924.56;5090687;27;44866;-85
2022/03/07 01:20:26;;;;;;;;;55.25;42.50;;;;;2.36;100.00;101925.50;5091592;27;45200;-83
2022/03/07 01:22:52;;;;;;;;;73.00;57.00;;;;;2.35;100.00;101926.41;5088171;27;44869;-86
2022/03/07 01:25:17;;;;;;;;;74.67;54.67;;;;;2.36;100.00;101922.00;5082977;27;45260;-85
2022/03/07 01:27:43;;;;;;;;;78.50;59.50;;;;;2.34;100.00;101923.81;5080654;27;45630;-85
2022/03/07 01:30:09;;;;;;;;;38.50;36.75;;;;;2.29;100.00;101931.72;5085666;27;45286;-85
2022/03/07 01:32:34;;;;;;;;;79.00;62.00;;;;;2.28;100.00;101927.38;5089285;27;44789;-86
2022/03/07 01:35:00;;;;;;;;;64.67;47.33;;;;;2.27;100.00;101916.03;5082962;27;45299;-85
2022/03/07 01:37:26;;;;;;;;;70.75;54.50;;;;;2.25;100.00;101906.44;5080381;28;44945;-87
2022/03/07 01:39:52;;;;;;;;;62.25;46.75;;;;;2.21;100.00;101923.09;5078547;27;46626;-86
2022/03/07 01:42:17;;;;;;;;;77.00;63.00;;;;;2.22;100.00;101916.94;5079678;27;44862;-86
2022/03/07 01:44:43;;;;;;;;;73.00;57.00;;;;;2.20;100.00;101923.97;5076530;27;44817;-85
2022/03/07 01:47:08;;;;;;;;;68.67;54.33;;;;;2.21;100.00;101923.09;5078446;28;45470;-85
2022/03/07 01:49:34;;;;;;;;;61.67;49.33;;;;;2.19;100.00;101919.63;5078974;27;45409;-86
2022/03/07 01:51:59;;;;;;;;;69.00;56.00;;;;;2.15;100.00;101910.94;5079903;27;44756;-86
2022/03/07 01:54:26;;;;;;;;;49.00;41.00;;;;;2.14;100.00;101914.44;5100293;27;45339;-86
2022/03/07 01:56:53;;;;;;;;;65.67;50.00;;;;;2.13;100.00;101914.44;5101181;27;44878;-84
2022/03/07 01:59:25;;;;;;;;;68.00;53.67;;;;;2.12;100.00;101907.47;5103826;27;45164;-85
2022/03/07 02:01:51;;;;;;;;;63.67;53.00;;;;;2.10;100.00;101885.69;5108994;27;45315;-84
2022/03/07 02:04:17;;;;;;;;;62.67;49.00;;;;;2.09;100.00;101903.16;5111149;27;44775;-84
2022/03/07 02:06:44;;;;;;;;;63.67;48.00;;;;;2.07;100.00;101915.41;5106620;27;44842;-85
2022/03/07 02:09:10;;;;;;;;;67.00;52.33;;;;;2.06;100.00;101893.56;5102850;27;45324;-85
2022/03/07 02:11:36;;;;;;;;;74.00;55.75;;;;;2.04;100.00;101891.88;5101247;27;44713;-86
2022/03/07 02:14:20;;;;;;;;;72.33;54.33;;;;;2.02;100.00;101894.50;5101519;27;45605;-85
2022/03/07 02:16:46;;;;;;;;;58.00;47.33;;;;;1.99;100.00;101897.16;5099625;27;45422;-86
2022/03/07 02:19:12;;;;;;;;;62.33;52.33;;;;;1.98;100.00;101884.97;5100793;27;45410;-86
2022/03/07 02:21:44;;;;;;;;;66.75;51.50;;;;;1.96;100.00;101889.34;5101688;27;45099;-85
2022/03/07 02:24:10;;;;;;;;;66.00;51.00;;;;;1.94;100.00;101899.00;5101166;27;44764;-85
2022/03/07 02:26:36;;;;;;;;;63.00;53.00;;;;;1.90;100.00;101873.69;5100169;27;44919;-86
2022/03/07 02:29:02;;;;;;;;;60.67;45.67;;;;;1.90;100.00;101876.31;5098014;27;45250;-82
2022/03/07 02:31:29;;;;;;;;;40.00;30.67;;;;;1.89;100.00;101884.22;5099541;27;45099;-81
2022/03/07 02:33:56;;;;;;;;;75.25;57.75;;;;;1.88;100.00;101882.44;5100084;27;44751;-81
2022/03/07 02:36:22;;;;;;;;;62.00;47.67;;;;;1.84;100.00;101875.50;5104267;27;45303;-82
2022/03/07 02:38:47;;;;;;;;;64.33;46.67;;;;;1.84;100.00;101875.50;5105970;27;45113;-82
2022/03/07 02:41:13;;;;;;;;;68.00;51.33;;;;;1.83;100.00;101866.78;5100052;27;45418;-81
2022/03/07 02:43:39;;;;;;;;;68.67;51.67;;;;;1.79;100.00;101868.59;5097961;27;44838;-81
2022/03/07 02:46:05;;;;;;;;;64.00;47.33;;;;;1.80;100.00;101872.09;5100503;27;44786;-81
2022/03/07 02:48:30;;;;;;;;;68.67;54.33;;;;;1.76;100.00;101857.28;5101617;27;45183;-80
2022/03/07 02:50:57;;;;;;;;;67.67;51.67;;;;;1.73;100.00;101855.56;5100319;27;45367;-79
2022/03/07 02:53:23;;;;;;;;;57.25;42.50;;;;;1.73;100.00;101857.31;5092657;27;44792;-81
2022/03/07 02:55:48;;;;;;;;;65.67;44.33;;;;;1.71;100.00;101859.09;5081468;27;44788;-81
2022/03/07 02:58:13;;;;;;;;;64.00;46.67;;;;;1.69;100.00;101848.66;5082574;27;45276;-81
2022/03/07 03:00:39;;;;;;;;;66.75;49.50;;;;;1.68;100.00;101857.38;5081486;27;45384;-81
2022/03/07 03:03:04;;;;;;;;;56.67;41.67;;;;;1.65;100.00;101852.19;5081712;28;45477;-81
2022/03/07 03:05:30;;;;;;;;;69.67;51.33;;;;;1.62;100.00;101849.59;5080695;28;44859;-81
2022/03/07 03:07:56;;;;;;;;;70.33;54.67;;;;;1.61;100.00;101852.25;5083066;27;46824;-81
2022/03/07 03:10:21;;;;;;;;;71.50;57.50;;;;;1.59;100.00;101862.72;5085324;27;44739;-81
2022/03/07 03:12:48;;;;;;;;;62.00;48.50;;;;;1.59;100.00;101859.22;5084591;27;44672;-81
2022/03/07 03:15:14;;;;;;;;;65.33;50.33;;;;;1.56;100.00;101844.44;5084221;27;44801;-82
2022/03/07 03:17:41;;;;;;;;;63.00;49.33;;;;;1.55;100.00;101847.94;5079784;27;45365;-81
2022/03/07 03:20:10;;;;;;;;;47.00;37.67;;;;;1.53;100.00;101853.19;5079502;28;44767;-81
2022/03/07 03:22:36;;;;;;;;;68.33;53.67;;;;;1.51;100.00;101841.00;5078846;27;45312;-81
2022/03/07 03:25:01;;;;;;;;;61.00;46.33;;;;;1.50;100.00;101855.00;5078299;27;44840;-81
2022/03/07 03:27:27;;;;;;;;;71.67;51.00;;;;;1.47;100.00;101842.78;5079271;27;45407;-79
2022/03/07 03:29:52;;;;;;;;;63.67;46.33;;;;;1.45;100.00;101851.53;5079320;27;44838;-81
2022/03/07 03:32:17;;;;;;;;;46.67;39.67;;;;;1.42;100.00;101838.50;5079312;27;44805;-81
2022/03/07 03:34:43;;;;;;;;;60.67;49.00;;;;;1.43;100.00;101842.84;5076369;28;45426;-81
2022/03/07 03:37:08;;;;;;;;;59.00;45.00;;;;;1.39;100.00;101842.00;5077917;27;45459;-81
2022/03/07 03:39:33;;;;;;;;;50.33;31.33;;;;;1.41;100.00;101848.09;5078399;27;44760;-82
2022/03/07 03:41:59;;;;;;;;;59.67;46.33;;;;;1.41;100.00;101853.34;5079073;28;44805;-82
2022/03/07 03:44:24;;;;;;;;;56.67;43.00;;;;;1.38;100.00;101853.38;5084712;27;44860;-81
2022/03/07 03:46:50;;;;;;;;;43.67;41.67;;;;;1.37;100.00;101851.63;5079519;27;45386;-81
2022/03/07 03:49:15;;;;;;;;;55.67;43.67;;;;;1.35;100.00;101855.13;5078258;27;44822;-81
2022/03/07 03:51:41;;;;;;;;;59.67;47.33;;;;;1.34;100.00;101850.78;5077579;27;45088;-80
2022/03/07 03:54:06;;;;;;;;;61.00;46.25;;;;;1.31;100.00;101861.31;5077291;27;44868;-81
2022/03/07 03:56:32;;;;;;;;;70.67;53.67;;;;;1.27;100.00;101856.09;5080158;27;45206;-80
2022/03/07 03:58:57;;;;;;;;;58.33;47.00;;;;;1.25;100.00;101860.47;5079973;27;45227;-81
2022/03/07 04:01:22;;;;;;;;;54.67;42.33;;;;;1.24;100.00;101856.13;5078735;27;45362;-81
2022/03/07 04:03:48;;;;;;;;;70.50;49.75;;;;;1.21;100.00;101847.44;5078339;27;44827;-81
2022/03/07 04:06:13;;;;;;;;;68.00;50.67;;;;;1.20;100.00;101854.41;5077299;27;45430;-80
2022/03/07 04:08:44;;;;;;;;;47.75;31.25;;;;;1.16;100.00;101849.22;5076045;27;45382;-80
2022/03/07 04:11:09;;;;;;;;;62.00;49.00;;;;;1.14;100.00;101851.88;5076360;28;44702;-81
2022/03/07 04:13:35;;;;;;;;;56.67;46.00;;;;;1.12;100.00;101851.03;5078134;27;44740;-82
2022/03/07 04:16:00;;;;;;;;;45.00;39.00;;;;;1.11;100.00;101857.13;5081124;27;46118;-82
2022/03/07 04:18:25;;;;;;;;;29.67;21.33;;;;;1.09;100.00;101858.03;5083722;27;44681;-81
2022/03/07 04:20:51;;;;;;;;;54.00;39.00;;;;;1.08;100.00;101862.41;5077518;28;45340;-83
2022/03/07 04:23:20;;;;;;;;;23.67;10.33;;;;;1.03;100.00;101861.59;5077271;27;44751;-82
2022/03/07 04:25:47;;;;;;;;;66.33;50.00;;;;;1.03;100.00;101864.19;5076908;27;45620;-81
2022/03/07 04:28:13;;;;;;;;;45.67;29.00;;;;;1.00;100.00;101844.16;5077029;27;45470;-81
2022/03/07 04:30:38;;;;;;;;;64.67;48.67;;;;;0.99;100.00;101860.75;5077081;28;45251;-82
2022/03/07 04:33:04;;;;;;;;;59.50;49.25;;;;;0.96;100.00;101865.97;5077335;27;44888;-81
2022/03/07 04:35:29;;;;;;;;;37.33;33.00;;;;;0.95;100.00;101856.41;5076763;27;45091;-82
2022/03/07 04:37:54;;;;;;;;;54.33;45.00;;;;;0.96;100.00;101870.34;5076987;27;44847;-82
2022/03/07 04:40:20;;;;;;;;;63.33;49.33;;;;;0.93;100.00;101858.19;5077560;27;45175;-81
2022/03/07 04:42:45;;;;;;;;;62.67;51.00;;;;;0.92;100.00;101873.88;5077348;27;44903;-80
2022/03/07 04:45:14;;;;;;;;;60.33;45.33;;;;;0.91;100.00;101872.16;5076817;27;45046;-82
2022/03/07 04:47:41;;;;;;;;;62.67;48.67;;;;;0.89;100.00;101873.91;5078921;28;44807;-81
2022/03/07 04:50:07;;;;;;;;;45.00;40.00;;;;;0.88;100.00;101875.66;5079822;27;44794;-82
2022/03/07 04:52:34;;;;;;;;;65.67;52.33;;;;;0.86;100.00;101869.56;5090898;27;44881;-81
2022/03/07 04:54:59;;;;;;;;;60.00;46.00;;;;;0.84;100.00;101871.34;5103042;27;45024;-81
2022/03/07 04:57:24;;;;;;;;;64.00;48.33;;;;;0.81;100.00;101863.50;5102111;27;44800;-82
2022/03/07 04:59:50;;;;;;;;;37.00;29.33;;;;;0.79;100.00;101869.66;5101805;27;45247;-82
2022/03/07 05:02:15;;;;;;;;;51.33;46.33;;;;;0.79;100.00;101877.50;5099383;27;44930;-82
2022/03/07 05:04:41;;;;;;;;;40.00;31.67;;;;;0.76;100.00;101867.91;5099154;27;45203;-82
2022/03/07 05:07:06;;;;;;;;;35.00;32.50;;;;;0.75;100.00;101872.28;5098684;27;44797;-81
2022/03/07 05:09:32;;;;;;;;;66.67;53.00;;;;;0.74;100.00;101873.16;5098223;27;44685;-83
2022/03/07 05:11:58;;;;;;;;;63.67;46.00;;;;;0.72;100.00;101874.91;5097799;27;45226;-81
2022/03/07 05:14:24;;;;;;;;;58.67;47.33;;;;;0.71;100.00;101873.19;5098383;27;45101;-82
2022/03/07 05:16:49;;;;;;;;;46.67;40.67;;;;;0.70;100.00;101875.81;5097790;27;45424;-82
2022/03/07 05:19:15;;;;;;;;;70.00;54.50;;;;;0.69;100.00;101876.72;5097461;27;44847;-80
2022/03/07 05:21:40;;;;;;;;;68.25;51.50;;;;;0.68;100.00;101875.84;5098006;27;45256;-82
2022/03/07 05:24:06;;;;;;;;;62.33;50.67;;;;;0.66;100.00;101890.66;5098088;27;46899;-81
2022/03/07 05:26:32;;;;;;;;;50.25;42.00;;;;;0.62;100.00;101880.22;5101543;27;44733;-80
2022/03/07 05:28:57;;;;;;;;;69.33;51.67;;;;;0.60;100.00;101880.25;5103112;27;44795;-80
2022/03/07 05:31:23;;;;;;;;;63.67;51.33;;;;;0.59;100.00;101875.03;5096805;27;44768;-80
2022/03/07 05:33:48;;;;;;;;;66.33;50.33;;;;;0.58;100.00;101883.75;5097068;27;45086;-84
2022/03/07 05:36:14;;;;;;;;;62.67;46.67;;;;;0.55;100.00;101882.03;5099952;27;45371;-80
2022/03/07 05:38:39;;;;;;;;;58.00;46.00;;;;;0.51;100.00;101880.31;5100213;27;44743;-81
2022/03/07 05:41:05;;;;;;;;;60.00;45.67;;;;;0.49;100.00;101887.31;5099694;27;45500;-80
2022/03/07 05:43:31;;;;;;;;;66.00;51.33;;;;;0.48;100.00;101881.22;5100450;27;45082;-80
2022/03/07 05:45:57;;;;;;;;;71.33;55.00;;;;;0.44;100.00;101874.28;5099865;27;44833;-81
2022/03/07 05:48:22;;;;;;;;;64.33;51.00;;;;;0.43;100.00;101876.88;5099978;27;45447;-83
2022/03/07 05:50:47;;;;;;;;;65.33;44.00;;;;;0.41;100.00;101876.91;5101362;27;44684;-83
2022/03/07 05:53:13;;;;;;;;;65.33;48.67;;;;;0.40;100.00;101882.13;5090596;27;45130;-85
2022/03/07 05:55:38;;;;;;;;;64.00;52.33;;;;;0.38;100.00;101881.25;5082821;27;44815;-84
2022/03/07 05:58:04;;;;;;;;;65.00;53.67;;;;;0.35;100.00;101883.91;5084422;27;45029;-84
2022/03/07 06:00:30;;;;;;;;;67.33;52.00;;;;;0.35;100.00;101881.31;5090601;27;44823;-86
2022/03/07 06:02:56;;;;;;;;;67.00;52.00;;;;;0.34;100.00;101884.78;5092434;28;44950;-83
2022/03/07 06:05:22;;;;;;;;;65.33;44.00;;;;;0.35;100.00;101889.16;5089049;27;44858;-84
2022/03/07 06:07:48;;;;;;;;;67.00;52.67;;;;;0.33;100.00;101891.75;5079236;27;45434;-81
2022/03/07 06:10:13;;;;;;;;;71.50;58.75;;;;;0.34;100.00;101885.66;5081923;27;44761;-83
2022/03/07 06:12:39;;;;;;;;;52.00;44.67;;;;;0.33;100.00;101883.91;5091079;27;45015;-80
2022/03/07 06:15:06;;;;;;;;;60.33;47.67;;;;;0.34;100.00;101893.50;5081346;27;44855;-81
2022/03/07 06:17:36;;;;;;;;;59.00;48.33;;;;;0.33;100.00;101889.13;5079903;27;44912;-81
2022/03/07 06:20:03;;;;;;;;;62.33;47.33;;;;;0.33;100.00;101891.75;5078527;27;44864;-80
2022/03/07 06:22:29;;;;;;;;;68.67;49.33;;;;;0.32;100.00;101899.59;5079252;27;45493;-81
2022/03/07 06:24:54;;;;;;;;;75.75;62.50;;;;;0.32;100.00;101895.25;5078668;27;45254;-80
2022/03/07 06:27:19;;;;;;;;;36.00;30.33;;;;;0.30;100.00;101899.63;5079220;27;45217;-82
2022/03/07 06:29:46;;;;;;;;;53.67;38.00;;;;;0.31;100.00;101901.34;5079801;27;44879;-85
2022/03/07 06:32:12;;;;;;;;;52.00;41.25;;;;;0.32;100.00;101903.09;5077866;27;46669;-82
2022/03/07 06:34:37;;;;;;;;;40.00;23.33;;;;;0.33;100.00;101890.88;5079972;27;44713;-82
2022/03/07 06:37:03;;;;;;;;;75.75;54.75;;;;;0.33;100.00;101888.28;5080096;27;45482;-83
2022/03/07 06:39:28;;;;;;;;;47.33;33.33;;;;;0.37;100.00;101892.59;5083092;27;45531;-82
2022/03/07 06:41:55;;;;;;;;;65.67;50.00;;;;;0.39;100.00;101886.50;5086031;27;44909;-82
2022/03/07 06:44:21;;;;;;;;;71.33;48.67;;;;;0.46;100.00;101898.63;5080687;27;44753;-83
2022/03/07 06:46:46;;;;;;;;;54.67;46.33;;;;;0.48;100.00;101896.91;5082623;27;44812;-83
2022/03/07 06:49:12;;;;;;;;;62.33;50.00;;;;;0.45;100.00;101902.13;5082397;27;44801;-84
2022/03/07 06:51:37;;;;;;;;;49.67;41.00;;;;;0.49;100.00;101906.47;5080173;28;45337;-83
2022/03/07 06:54:03;;;;;;;;;56.33;42.67;;;;;0.52;100.00;101909.03;5061799;27;44922;-83
2022/03/07 06:56:29;;;;;;;;;57.67;42.00;;;;;0.58;100.00;101905.56;5059334;28;44777;-83
2022/03/07 06:58:55;;;;;;;;;60.00;47.00;;;;;0.60;100.00;101908.16;5060183;28;44761;-84
2022/03/07 07:01:21;;;;;;;;;63.33;46.67;;;;;0.67;100.00;101902.84;5059507;28;45570;-83
2022/03/07 07:03:46;;;;;;;;;32.67;18.33;;;;;0.70;100.00;101900.22;5058530;28;44742;-83
2022/03/07 07:06:12;;;;;;;;;65.67;50.33;;;;;0.76;100.00;101902.78;5058466;28;44863;-84
2022/03/07 07:08:38;;;;;;;;;58.00;45.00;;;;;0.83;100.00;101900.13;5058407;28;44880;-83
2022/03/07 07:11:03;;;;;;;;;59.00;42.33;;;;;0.87;100.00;101891.34;5058194;28;45415;-83
2022/03/07 07:13:28;;;;;;;;;59.33;44.33;;;;;0.92;100.00;101905.25;5058489;28;45401;-84
2022/03/07 07:15:57;;;;;;;;;58.33;42.00;;;;;0.94;100.00;101903.53;5057595;28;45753;-83
2022/03/07 07:18:23;;;;;;;;;53.67;43.67;;;;;1.02;100.00;101904.34;5070369;28;44838;-82
2022/03/07 07:20:50;;;;;;;;;57.67;42.00;;;;;1.01;100.00;101897.34;5084808;27;44986;-83
2022/03/07 07:23:17;;;;;;;;;50.00;42.67;;;;;1.03;100.00;101891.22;5078786;27;44832;-84
2022/03/07 07:25:43;;;;;;;;;44.67;38.33;;;;;1.12;100.00;101897.28;5060275;28;45300;-83
2022/03/07 07:28:09;;;;;;;;;64.67;49.33;;;;;1.17;100.00;101898.09;5059747;28;45532;-83
2022/03/07 07:30:34;;;;;;;;;56.33;46.67;;;;;1.19;100.00;101891.94;5060907;27;44901;-83
2022/03/07 07:32:59;;;;;;;;;66.67;50.00;;;;;1.19;100.00;101909.41;5068451;27;45325;-84
2022/03/07 07:35:25;;;;;;;;;50.00;40.67;;;;;1.19;100.00;101902.41;5078277;27;45462;-83
2022/03/07 07:37:50;;;;;;;;;45.67;39.67;;;;;1.26;100.00;101903.25;5078187;27;44946;-83
2022/03/07 07:40:15;;;;;;;;;61.67;49.33;;;;;1.35;100.00;101902.25;5072397;27;45566;-83
2022/03/07 07:42:41;;;;;;;;;38.00;25.67;;;;;1.34;100.00;101896.16;5057877;28;45248;-83
2022/03/07 07:45:07;;;;;;;;;55.33;43.67;;;;;1.38;100.00;101899.63;5060237;28;45410;-84
2022/03/07 07:47:33;;;;;;;;;48.67;19.00;;;;;1.44;100.00;101907.41;5059089;28;44839;-84
2022/03/07 07:49:58;;;;;;;;;51.00;37.33;;;;;1.47;100.00;101900.41;5078804;27;45214;-84
2022/03/07 07:52:24;;;;;;;;;56.33;42.67;;;;;1.51;100.00;101903.84;5062435;27;45372;-83
2022/03/07 07:54:49;;;;;;;;;36.00;34.67;;;;;1.56;100.00;101902.06;5089053;27;44760;-84
2022/03/07 07:57:14;;;;;;;;;58.33;41.33;;;;;1.69;100.00;101900.13;5079967;27;44923;-84
2022/03/07 07:59:40;;;;;;;;;57.00;45.33;;;;;1.80;100.00;101898.28;5082352;27;44942;-83
2022/03/07 08:02:05;;;;;;;;;70.00;49.67;;;;;1.99;100.00;101912.03;5078581;27;44791;-83
2022/03/07 08:04:31;;;;;;;;;67.33;48.67;;;;;2.02;100.00;101902.34;5077874;27;44797;-83
2022/03/07 08:06:56;;;;;;;;;62.33;48.67;;;;;2.00;100.00;101892.78;5058960;27;45198;-83
2022/03/07 08:09:22;;;;;;;;;53.67;38.33;;;;;2.00;100.00;101909.38;5057462;28;45010;-83
2022/03/07 08:11:47;;;;;;;;;46.00;40.33;;;;;1.96;100.00;101905.06;5056409;28;45358;-82
2022/03/07 08:14:13;;;;;;;;;43.00;39.00;;;;;1.98;100.00;101881.44;5056141;28;44778;-83
2022/03/07 08:16:38;;;;;;;;;44.33;35.33;;;;;2.07;100.00;101883.94;5057350;28;44762;-84
2022/03/07 08:19:03;;;;;;;;;58.00;47.67;;;;;2.14;100.00;101890.00;5057622;28;45412;-84
2022/03/07 08:21:29;;;;;;;;;58.00;45.00;;;;;2.21;100.00;101882.00;5055793;28;44811;-83
2022/03/07 08:23:55;;;;;;;;;65.00;50.00;;;;;2.29;100.00;101892.41;5057542;28;44926;-85
2022/03/07 08:26:22;;;;;;;;;55.33;42.00;;;;;2.36;100.00;101885.31;5058246;28;44868;-85
2022/03/07 08:28:47;;;;;;;;;53.00;40.33;;;;;2.43;100.00;101894.84;5058295;28;45463;-89
2022/03/07 08:31:13;;;;;;;;;53.00;40.67;;;;;2.51;100.00;101896.44;5061182;28;44791;-87
2022/03/07 08:33:38;;;;;;;;;58.00;42.33;;;;;2.61;100.00;101888.41;5062530;28;44807;-86
2022/03/07 08:36:04;;;;;;;;;44.33;34.67;;;;;2.69;100.00;101897.03;5064203;28;44826;-87
2022/03/07 08:38:29;;;;;;;;;57.67;45.33;;;;;2.70;100.00;101901.41;5063010;27;45278;-87
2022/03/07 08:40:55;;;;;;;;;55.67;47.33;;;;;2.85;100.00;101880.16;5059215;28;44662;-86
2022/03/07 08:43:21;;;;;;;;;63.33;44.67;;;;;2.88;100.00;101881.88;5068605;28;44709;-88
2022/03/07 08:45:47;;;;;;;;;61.00;43.67;;;;;2.93;100.00;101869.53;5083513;27;44890;-89
2022/03/07 08:48:13;;;;;;;;;51.33;43.33;;;;;2.99;100.00;101874.69;5077146;27;45345;-87
2022/03/07 08:50:43;;;;;;;;;62.33;45.00;;;;;3.00;100.00;101864.19;5066583;28;44837;-89
2022/03/07 08:53:08;;;;;;;;;61.00;45.33;;;;;3.01;100.00;101865.91;5071736;27;44891;-86
2022/03/07 08:55:34;;;;;;;;;54.33;43.67;;;;;3.13;100.00;101870.06;5071868;27;44757;-83
2022/03/07 08:57:59;;;;;;;;;47.00;39.33;;;;;3.21;100.00;101878.66;5057712;28;45213;-83
2022/03/07 09:00:25;;;;;;;;;25.67;23.33;;;;;3.21;100.00;101883.06;5057694;28;44908;-84
2022/03/07 09:02:51;;;;;;;;;19.00;13.00;;;;;3.24;100.00;101878.63;5058179;28;44789;-84
2022/03/07 09:05:17;;;;;;;;;49.33;39.33;;;;;3.26;100.00;101865.47;5057472;28;45224;-84
2022/03/07 09:07:43;;;;;;;;;53.00;41.67;;;;;3.40;100.00;101867.84;5062679;28;46719;-87
2022/03/07 09:10:09;;;;;;;;;51.33;39.67;;;;;3.50;100.00;101870.25;5057574;28;45450;-83
2022/03/07 09:12:34;;;;;;;;;59.33;48.00;;;;;3.64;100.00;101869.13;5066752;27;44888;-83
2022/03/07 09:15:03;;;;;;;;;61.67;47.00;;;;;3.72;100.00;101875.91;5079014;27;44820;-84
2022/03/07 09:17:29;;;;;;;;;56.00;44.00;;;;;3.80;100.00;101866.13;5075544;27;45294;-85
2022/03/07 09:19:58;;;;;;;;;54.00;44.00;;;;;3.84;100.00;101867.81;5077665;27;45307;-84
2022/03/07 09:22:25;;;;;;;;;58.33;45.67;;;;;3.95;100.00;101867.56;5085075;27;45514;-83
2022/03/07 09:24:51;;;;;;;;;41.33;36.67;;;;;4.11;100.00;101868.13;5060629;28;44788;-84
2022/03/07 09:27:16;;;;;;;;;60.33;43.67;;;;;4.19;100.00;101871.44;5074482;28;47068;-84
2022/03/07 09:29:42;;;;;;;;;60.33;48.67;;;;;4.27;100.00;101863.38;5076040;28;45368;-84
2022/03/07 09:32:07;;;;;;;;;36.67;32.00;;;;;4.32;100.00;101870.25;5060594;27;45514;-84
2022/03/07 09:34:34;;;;;;;;;57.00;44.67;;;;;4.30;100.00;101860.66;5076127;27;45391;-86
2022/03/07 09:37:00;;;;;;;;;53.00;42.67;;;;;4.36;100.00;101866.66;5078337;27;45463;-83
2022/03/07 09:39:27;;;;;;;;;52.00;40.33;;;;;4.43;100.00;101866.53;5072116;27;45244;-85
2022/03/07 09:41:53;;;;;;;;;53.00;44.33;;;;;4.50;100.00;101854.97;5047544;28;44840;-84
2022/03/07 09:44:18;;;;;;;;;50.33;40.00;;;;;4.57;100.00;101869.69;5069085;28;45502;-84
2022/03/07 09:46:45;;;;;;;;;56.00;41.00;;;;;4.71;100.00;101862.31;5056338;28;45001;-84
2022/03/07 09:49:10;;;;;;;;;53.67;40.00;;;;;4.84;99.57;101865.53;5067373;28;45311;-84
2022/03/07 09:51:36;;;;;;;;;46.00;35.67;;;;;4.95;98.83;101857.34;5070697;27;45361;-86
2022/03/07 09:54:02;;;;;;;;;59.00;43.00;;;;;4.95;97.07;101865.25;5068915;27;45573;-85
2022/03/07 09:56:27;;;;;;;;;44.00;38.33;;;;;4.94;97.68;101867.03;5063443;28;45481;-84
2022/03/07 09:58:53;;;;;;;;;49.67;37.33;;;;;5.02;96.53;101848.38;5067088;28;44768;-83
2022/03/07 10:01:21;;;;;;;;;46.67;37.67;;;;;5.10;95.65;101851.69;5070009;27;45459;-86
2022/03/07 10:03:47;;;;;;;;;44.00;33.33;;;;;5.16;98.62;101849.75;5075645;27;45042;-85
2022/03/07 10:06:17;;;;;;;;;55.67;44.67;;;;;5.17;95.64;101853.25;5069908;27;45449;-86
2022/03/07 10:09:01;;;;;;;;;52.67;39.67;;;;;5.18;94.22;101851.50;5064360;28;44806;-84
2022/03/07 10:11:28;;;;;;;;;47.00;37.33;;;;;5.21;96.77;101851.41;5066583;28;44834;-84
2022/03/07 10:14:02;;;;;;;;;36.33;33.33;;;;;4.95;92.88;101839.78;5058981;27;44910;-84
2022/03/07 10:16:42;;;;;;;;;45.00;40.00;;;;;4.96;93.90;101841.50;5062155;28;45031;-84
2022/03/07 10:19:10;;;;;;;;;56.67;42.33;;;;;4.94;94.02;101834.56;5076102;27;44834;-84
2022/03/07 10:21:36;;;;;;;;;43.33;37.33;;;;;4.98;96.67;101828.28;5069739;27;45452;-85
2022/03/07 10:24:02;;;;;;;;;19.33;12.00;;;;;4.90;95.63;101842.53;5070331;28;44789;-83
2022/03/07 10:26:35;;;;;;;;;36.00;26.00;;;;;5.02;94.02;101828.19;5076941;28;47355;-84
2022/03/07 10:29:00;;;;;;;;;42.00;37.33;;;;;5.18;91.22;101839.19;5077247;27;45351;-84
2022/03/07 10:31:29;;;;;;;;;35.00;32.00;;;;;5.23;92.48;101818.84;5081373;27;44832;-84
2022/03/07 10:34:11;;;;;;;;;41.67;34.00;;;;;5.26;88.60;101838.97;5085584;27;45230;-84
2022/03/07 10:36:42;;;;;;;;;41.67;37.67;;;;;5.34;87.26;101834.34;5068725;28;47232;-83
2022/03/07 10:39:15;;;;;;;;;53.67;38.33;;;;;5.34;86.24;101826.47;5062687;28;45180;-85
2022/03/07 10:41:44;;;;;;;;;45.33;38.67;;;;;5.39;86.35;101824.56;5062323;28;44778;-85
2022/03/07 10:44:12;;;;;;;;;48.00;37.00;;;;;5.49;87.05;101830.44;5068181;27;44895;-85
2022/03/07 10:46:40;;;;;;;;;44.00;34.00;;;;;5.60;85.94;101831.84;5076562;28;45399;-85
2022/03/07 10:49:12;;;;;;;;;51.33;41.67;;;;;5.70;86.30;101824.53;5077525;27;45311;-85
2022/03/07 10:51:57;;;;;;;;;44.67;38.33;;;;;5.76;85.06;101837.56;5067108;28;44737;-84
2022/03/07 10:54:23;;;;;;;;;42.67;37.00;;;;;5.85;83.33;101834.66;5062372;27;44860;-85
2022/03/07 10:56:50;;;;;;;;;42.67;35.67;;;;;5.91;83.91;101831.84;5076759;27;47251;-85
2022/03/07 10:59:26;;;;;;;;;45.67;40.00;;;;;5.82;84.67;101820.69;5068658;27;45299;-84
2022/03/07 11:02:09;;;;;;;;;46.67;38.33;;;;;5.92;84.75;101822.16;5069563;27;45247;-84
2022/03/07 11:04:37;;;;;;;;;53.33;41.00;;;;;5.98;84.43;101821.13;5079802;27;44768;-84